sensor_id;sensor_type;location;lat;lon;timestamp;pressure;altitude;pressure_sealevel;temperature;humidity
72892;BME280;61032;50.782;6.818;2024-03-07T00:00:23;101339.22;;;7.69;75.82
72892;BME280;61032;50.782;6.818;2024-03-07T00:01:24;101338.22;;;7.59;75.50
72892;BME280;61032;50.782;6.818;2024-03-07T00:02:26;101338.81;;;7.51;76.02
72892;BME280;61032;50.782;6.818;2024-03-07T00:03:28;101338.91;;;7.46;76.39
72892;BME280;61032;50.782;6.818;2024-03-07T00:04:28;101341.09;;;7.44;76.70
72892;BME280;61032;50.782;6.818;2024-03-07T00:05:29;101339.47;;;7.43;76.72
72892;BME280;61032;50.782;6.818;2024-03-07T00:06:29;101341.69;;;7.41;77.06
72892;BME280;61032;50.782;6.818;2024-03-07T00:07:30;101333.94;;;7.48;76.49
72892;BME280;61032;50.782;6.818;2024-03-07T00:08:30;101333.88;;;7.53;76.74
72892;BME280;61032;50.782;6.818;2024-03-07T00:09:31;101339.31;;;7.58;76.46
72892;BME280;61032;50.782;6.818;2024-03-07T00:10:32;101334.94;;;7.57;76.38
72892;BME280;61032;50.782;6.818;2024-03-07T00:11:32;101340.41;;;7.57;76.08
72892;BME280;61032;50.782;6.818;2024-03-07T00:12:34;101342.13;;;7.48;75.90
72892;BME280;61032;50.782;6.818;2024-03-07T00:13:35;101340.00;;;7.45;76.41
72892;BME280;61032;50.782;6.818;2024-03-07T00:14:35;101335.56;;;7.49;76.49
72892;BME280;61032;50.782;6.818;2024-03-07T00:15:36;101336.63;;;7.53;76.57
72892;BME280;61032;50.782;6.818;2024-03-07T00:16:37;101339.72;;;7.47;76.19
72892;BME280;61032;50.782;6.818;2024-03-07T00:17:37;101336.78;;;7.38;76.41
72892;BME280;61032;50.782;6.818;2024-03-07T00:18:38;101343.88;;;7.39;76.91
72892;BME280;61032;50.782;6.818;2024-03-07T00:19:39;101345.50;;;7.40;76.55
72892;BME280;61032;50.782;6.818;2024-03-07T00:20:39;101348.53;;;7.39;76.30
72892;BME280;61032;50.782;6.818;2024-03-07T00:21:40;101344.44;;;7.36;76.25
72892;BME280;61032;50.782;6.818;2024-03-07T00:22:41;101344.75;;;7.35;76.45
72892;BME280;61032;50.782;6.818;2024-03-07T00:23:42;101348.03;;;7.32;76.60
72892;BME280;61032;50.782;6.818;2024-03-07T00:24:42;101345.31;;;7.32;76.80
72892;BME280;61032;50.782;6.818;2024-03-07T00:25:43;101337.91;;;7.32;76.55
72892;BME280;61032;50.782;6.818;2024-03-07T00:26:43;101343.97;;;7.29;76.71
72892;BME280;61032;50.782;6.818;2024-03-07T00:27:43;101341.75;;;7.31;76.63
72892;BME280;61032;50.782;6.818;2024-03-07T00:28:45;101343.38;;;7.32;76.92
72892;BME280;61032;50.782;6.818;2024-03-07T00:29:45;101349.97;;;7.31;76.98
72892;BME280;61032;50.782;6.818;2024-03-07T00:30:52;101347.78;;;7.28;77.16
72892;BME280;61032;50.782;6.818;2024-03-07T00:31:53;101350.31;;;7.24;76.86
72892;BME280;61032;50.782;6.818;2024-03-07T00:32:53;101352.28;;;7.19;77.13
72892;BME280;61032;50.782;6.818;2024-03-07T00:33:55;101350.63;;;7.18;76.80
72892;BME280;61032;50.782;6.818;2024-03-07T00:34:56;101350.66;;;7.13;76.61
72892;BME280;61032;50.782;6.818;2024-03-07T00:35:57;101356.94;;;7.13;76.94
72892;BME280;61032;50.782;6.818;2024-03-07T00:36:57;101353.69;;;7.11;77.17
72892;BME280;61032;50.782;6.818;2024-03-07T00:37:59;101348.03;;;7.03;76.70
72892;BME280;61032;50.782;6.818;2024-03-07T00:38:59;101346.94;;;7.04;77.06
72892;BME280;61032;50.782;6.818;2024-03-07T00:40:00;101348.56;;;7.05;77.08
72892;BME280;61032;50.782;6.818;2024-03-07T00:41:00;101346.13;;;7.03;77.95
72892;BME280;61032;50.782;6.818;2024-03-07T00:42:00;101345.00;;;7.04;77.61
72892;BME280;61032;50.782;6.818;2024-03-07T00:43:02;101351.59;;;7.03;77.14
72892;BME280;61032;50.782;6.818;2024-03-07T00:44:03;101345.84;;;7.05;77.21
72892;BME280;61032;50.782;6.818;2024-03-07T00:45:04;101352.06;;;7.10;77.31
72892;BME280;61032;50.782;6.818;2024-03-07T00:46:04;101344.38;;;7.12;77.20
72892;BME280;61032;50.782;6.818;2024-03-07T00:47:06;101344.66;;;7.11;77.30
72892;BME280;61032;50.782;6.818;2024-03-07T00:48:07;101340.66;;;7.03;76.55
72892;BME280;61032;50.782;6.818;2024-03-07T00:49:08;101340.94;;;7.02;76.66
72892;BME280;61032;50.782;6.818;2024-03-07T00:50:09;101345.88;;;7.00;76.75
72892;BME280;61032;50.782;6.818;2024-03-07T00:51:10;101348.06;;;6.98;76.87
72892;BME280;61032;50.782;6.818;2024-03-07T00:52:10;101340.72;;;6.93;76.43
72892;BME280;61032;50.782;6.818;2024-03-07T00:53:10;101345.94;;;6.89;76.42
72892;BME280;61032;50.782;6.818;2024-03-07T00:54:11;101339.94;;;6.87;76.72
72892;BME280;61032;50.782;6.818;2024-03-07T00:55:13;101342.16;;;6.85;76.77
72892;BME280;61032;50.782;6.818;2024-03-07T00:56:15;101339.19;;;6.77;76.44
72892;BME280;61032;50.782;6.818;2024-03-07T00:57:15;101335.13;;;6.74;76.89
72892;BME280;61032;50.782;6.818;2024-03-07T00:58:15;101332.41;;;6.69;76.42
72892;BME280;61032;50.782;6.818;2024-03-07T00:59:16;101337.34;;;6.67;77.41
72892;BME280;61032;50.782;6.818;2024-03-07T01:00:17;101339.50;;;6.70;77.50
72892;BME280;61032;50.782;6.818;2024-03-07T01:01:21;101333.19;;;6.75;76.78
72892;BME280;61032;50.782;6.818;2024-03-07T01:02:21;101340.03;;;6.72;76.75
72892;BME280;61032;50.782;6.818;2024-03-07T01:03:22;101328.28;;;6.72;77.19
72892;BME280;61032;50.782;6.818;2024-03-07T01:04:24;101335.69;;;6.66;76.77
72892;BME280;61032;50.782;6.818;2024-03-07T01:05:25;101324.78;;;6.66;77.27
72892;BME280;61032;50.782;6.818;2024-03-07T01:06:25;101329.19;;;6.62;77.19
72892;BME280;61032;50.782;6.818;2024-03-07T01:07:29;101330.84;;;6.63;77.55
72892;BME280;61032;50.782;6.818;2024-03-07T01:08:29;101330.31;;;6.56;77.44
72892;BME280;61032;50.782;6.818;2024-03-07T01:09:32;101325.66;;;6.62;77.08
72892;BME280;61032;50.782;6.818;2024-03-07T01:10:33;101327.00;;;6.64;76.83
72892;BME280;61032;50.782;6.818;2024-03-07T01:11:33;101323.22;;;6.55;76.15
72892;BME280;61032;50.782;6.818;2024-03-07T01:12:35;101318.28;;;6.57;76.90
72892;BME280;61032;50.782;6.818;2024-03-07T01:13:36;101322.41;;;6.54;77.71
72892;BME280;61032;50.782;6.818;2024-03-07T01:14:37;101316.16;;;6.49;77.95
72892;BME280;61032;50.782;6.818;2024-03-07T01:15:37;101321.06;;;6.47;78.32
72892;BME280;61032;50.782;6.818;2024-03-07T01:16:38;101318.06;;;6.48;77.56
72892;BME280;61032;50.782;6.818;2024-03-07T01:17:38;101320.03;;;6.43;77.71
72892;BME280;61032;50.782;6.818;2024-03-07T01:18:38;101320.53;;;6.45;78.03
72892;BME280;61032;50.782;6.818;2024-03-07T01:19:39;101321.13;;;6.42;77.93
72892;BME280;61032;50.782;6.818;2024-03-07T01:20:39;101316.75;;;6.41;76.89
72892;BME280;61032;50.782;6.818;2024-03-07T01:21:40;101320.06;;;6.38;77.46
72892;BME280;61032;50.782;6.818;2024-03-07T01:22:40;101322.78;;;6.38;76.68
72892;BME280;61032;50.782;6.818;2024-03-07T01:23:41;101318.97;;;6.39;76.86
72892;BME280;61032;50.782;6.818;2024-03-07T01:24:41;101317.88;;;6.35;76.45
72892;BME280;61032;50.782;6.818;2024-03-07T01:25:41;101315.16;;;6.30;76.77
72892;BME280;61032;50.782;6.818;2024-03-07T01:26:42;101313.53;;;6.29;77.26
72892;BME280;61032;50.782;6.818;2024-03-07T01:27:42;101307.88;;;6.20;76.44
72892;BME280;61032;50.782;6.818;2024-03-07T01:28:42;101316.63;;;6.17;76.51
72892;BME280;61032;50.782;6.818;2024-03-07T01:29:43;101309.78;;;6.19;76.79
72892;BME280;61032;50.782;6.818;2024-03-07T01:30:44;101315.78;;;6.16;77.23
72892;BME280;61032;50.782;6.818;2024-03-07T01:31:45;101308.44;;;6.17;77.34
72892;BME280;61032;50.782;6.818;2024-03-07T01:32:45;101311.44;;;6.10;77.63
72892;BME280;61032;50.782;6.818;2024-03-07T01:33:45;101307.63;;;6.11;78.28
72892;BME280;61032;50.782;6.818;2024-03-07T01:34:46;101307.38;;;6.03;78.09
72892;BME280;61032;50.782;6.818;2024-03-07T01:35:46;101305.47;;;6.03;78.04
72892;BME280;61032;50.782;6.818;2024-03-07T01:36:47;101305.72;;;6.07;77.77
72892;BME280;61032;50.782;6.818;2024-03-07T01:37:47;101301.66;;;6.04;77.74
72892;BME280;61032;50.782;6.818;2024-03-07T01:38:47;101303.88;;;6.02;77.38
72892;BME280;61032;50.782;6.818;2024-03-07T01:39:48;101301.66;;;6.04;78.10
72892;BME280;61032;50.782;6.818;2024-03-07T01:40:48;101304.38;;;6.04;77.41
72892;BME280;61032;50.782;6.818;2024-03-07T01:41:49;101299.78;;;6.00;78.22
72892;BME280;61032;50.782;6.818;2024-03-07T01:42:49;101301.16;;;5.97;77.65
72892;BME280;61032;50.782;6.818;2024-03-07T01:43:50;101301.16;;;5.92;78.15
72892;BME280;61032;50.782;6.818;2024-03-07T01:44:50;101303.91;;;5.92;78.07
72892;BME280;61032;50.782;6.818;2024-03-07T01:45:53;101303.34;;;5.90;78.94
72892;BME280;61032;50.782;6.818;2024-03-07T01:46:58;101299.50;;;5.86;79.01
72892;BME280;61032;50.782;6.818;2024-03-07T01:47:58;101300.06;;;5.88;78.73
72892;BME280;61032;50.782;6.818;2024-03-07T01:48:59;101301.16;;;5.92;78.22
72892;BME280;61032;50.782;6.818;2024-03-07T01:50:00;101305.50;;;5.98;79.02
72892;BME280;61032;50.782;6.818;2024-03-07T01:51:01;101298.41;;;6.02;78.58
72892;BME280;61032;50.782;6.818;2024-03-07T01:52:04;101303.00;;;6.07;78.43
72892;BME280;61032;50.782;6.818;2024-03-07T01:53:09;101306.34;;;5.89;77.43
72892;BME280;61032;50.782;6.818;2024-03-07T01:54:11;101306.09;;;5.80;78.89
72892;BME280;61032;50.782;6.818;2024-03-07T01:55:12;101307.47;;;5.77;79.08
72892;BME280;61032;50.782;6.818;2024-03-07T01:56:13;101305.81;;;5.81;78.82
72892;BME280;61032;50.782;6.818;2024-03-07T01:57:15;101303.66;;;5.78;79.09
72892;BME280;61032;50.782;6.818;2024-03-07T01:58:18;101302.31;;;5.71;79.00
72892;BME280;61032;50.782;6.818;2024-03-07T01:59:19;101303.94;;;5.67;80.01
72892;BME280;61032;50.782;6.818;2024-03-07T02:00:22;101301.22;;;5.72;79.37
72892;BME280;61032;50.782;6.818;2024-03-07T02:01:23;101303.94;;;5.77;79.25
72892;BME280;61032;50.782;6.818;2024-03-07T02:02:23;101300.38;;;5.81;78.73
72892;BME280;61032;50.782;6.818;2024-03-07T02:03:23;101296.81;;;5.81;79.16
72892;BME280;61032;50.782;6.818;2024-03-07T02:04:24;101297.91;;;5.80;78.90
72892;BME280;61032;50.782;6.818;2024-03-07T02:05:24;101303.66;;;5.78;79.13
72892;BME280;61032;50.782;6.818;2024-03-07T02:06:25;101296.03;;;5.75;78.95
72892;BME280;61032;50.782;6.818;2024-03-07T02:07:26;101297.94;;;5.65;79.19
72892;BME280;61032;50.782;6.818;2024-03-07T02:08:27;101293.03;;;5.72;79.11
72892;BME280;61032;50.782;6.818;2024-03-07T02:09:27;101292.47;;;5.75;79.28
72892;BME280;61032;50.782;6.818;2024-03-07T02:10:28;101294.09;;;5.81;78.52
72892;BME280;61032;50.782;6.818;2024-03-07T02:11:28;101295.47;;;5.78;79.11
72892;BME280;61032;50.782;6.818;2024-03-07T02:12:29;101293.56;;;5.74;80.00
72892;BME280;61032;50.782;6.818;2024-03-07T02:13:30;101287.28;;;5.73;79.67
72892;BME280;61032;50.782;6.818;2024-03-07T02:14:31;101288.13;;;5.69;79.28
72892;BME280;61032;50.782;6.818;2024-03-07T02:15:32;101288.94;;;5.69;79.12
72892;BME280;61032;50.782;6.818;2024-03-07T02:16:33;101281.31;;;5.66;79.56
72892;BME280;61032;50.782;6.818;2024-03-07T02:17:34;101281.84;;;5.68;79.72
72892;BME280;61032;50.782;6.818;2024-03-07T02:18:36;101278.84;;;5.70;79.12
72892;BME280;61032;50.782;6.818;2024-03-07T02:19:37;101284.56;;;5.68;79.72
72892;BME280;61032;50.782;6.818;2024-03-07T02:20:42;101279.94;;;5.74;79.08
72892;BME280;61032;50.782;6.818;2024-03-07T02:21:43;101282.13;;;5.72;79.12
72892;BME280;61032;50.782;6.818;2024-03-07T02:22:43;101281.28;;;5.71;79.83
72892;BME280;61032;50.782;6.818;2024-03-07T02:23:44;101278.28;;;5.73;79.23
72892;BME280;61032;50.782;6.818;2024-03-07T02:24:44;101282.38;;;5.70;78.98
72892;BME280;61032;50.782;6.818;2024-03-07T02:25:45;101279.38;;;5.72;78.32
72892;BME280;61032;50.782;6.818;2024-03-07T02:26:45;101272.28;;;5.71;78.24
72892;BME280;61032;50.782;6.818;2024-03-07T02:27:46;101268.75;;;5.70;78.81
72892;BME280;61032;50.782;6.818;2024-03-07T02:28:46;101271.19;;;5.72;78.72
72892;BME280;61032;50.782;6.818;2024-03-07T02:29:46;101276.94;;;5.65;79.64
72892;BME280;61032;50.782;6.818;2024-03-07T02:30:47;101266.91;;;5.56;79.43
72892;BME280;61032;50.782;6.818;2024-03-07T02:31:47;101270.44;;;5.56;79.25
72892;BME280;61032;50.782;6.818;2024-03-07T02:32:48;101272.91;;;5.52;80.10
72892;BME280;61032;50.782;6.818;2024-03-07T02:33:54;101273.19;;;5.46;79.45
72892;BME280;61032;50.782;6.818;2024-03-07T02:34:55;101272.63;;;5.49;80.83
72892;BME280;61032;50.782;6.818;2024-03-07T02:35:55;101277.00;;;5.50;80.29
72892;BME280;61032;50.782;6.818;2024-03-07T02:36:56;101269.63;;;5.50;79.83
72892;BME280;61032;50.782;6.818;2024-03-07T02:37:56;101279.47;;;5.46;79.53
72892;BME280;61032;50.782;6.818;2024-03-07T02:38:56;101270.72;;;5.44;79.86
72892;BME280;61032;50.782;6.818;2024-03-07T02:39:57;101269.09;;;5.48;80.09
72892;BME280;61032;50.782;6.818;2024-03-07T02:40:58;101266.34;;;5.53;79.40
72892;BME280;61032;50.782;6.818;2024-03-07T02:41:59;101278.09;;;5.54;80.21
72892;BME280;61032;50.782;6.818;2024-03-07T02:42:59;101269.91;;;5.54;79.92
72892;BME280;61032;50.782;6.818;2024-03-07T02:44:00;101269.09;;;5.53;79.26
72892;BME280;61032;50.782;6.818;2024-03-07T02:45:03;101272.63;;;5.49;79.59
72892;BME280;61032;50.782;6.818;2024-03-07T02:46:05;101268.00;;;5.49;79.27
72892;BME280;61032;50.782;6.818;2024-03-07T02:47:06;101269.38;;;5.47;79.33
72892;BME280;61032;50.782;6.818;2024-03-07T02:48:07;101262.00;;;5.47;79.86
72892;BME280;61032;50.782;6.818;2024-03-07T02:49:09;101270.72;;;5.44;79.38
72892;BME280;61032;50.782;6.818;2024-03-07T02:50:10;101271.28;;;5.41;79.13
72892;BME280;61032;50.782;6.818;2024-03-07T02:51:11;101270.78;;;5.39;79.76
72892;BME280;61032;50.782;6.818;2024-03-07T02:52:11;101265.06;;;5.36;80.23
72892;BME280;61032;50.782;6.818;2024-03-07T02:53:12;101266.41;;;5.38;79.72
72892;BME280;61032;50.782;6.818;2024-03-07T02:54:13;101264.78;;;5.37;79.66
72892;BME280;61032;50.782;6.818;2024-03-07T02:55:13;101260.41;;;5.31;79.61
72892;BME280;61032;50.782;6.818;2024-03-07T02:56:14;101269.16;;;5.23;78.94
72892;BME280;61032;50.782;6.818;2024-03-07T02:57:14;101264.78;;;5.27;79.45
72892;BME280;61032;50.782;6.818;2024-03-07T02:58:14;101266.19;;;5.20;80.28
72892;BME280;61032;50.782;6.818;2024-03-07T02:59:16;101262.63;;;5.19;80.18
72892;BME280;61032;50.782;6.818;2024-03-07T03:00:16;101269.41;;;5.22;79.72
72892;BME280;61032;50.782;6.818;2024-03-07T03:01:19;101259.09;;;5.18;79.36
72892;BME280;61032;50.782;6.818;2024-03-07T03:02:20;101269.72;;;5.10;78.34
72892;BME280;61032;50.782;6.818;2024-03-07T03:03:20;101258.28;;;5.13;78.75
72892;BME280;61032;50.782;6.818;2024-03-07T03:04:21;101267.28;;;5.08;78.11
72892;BME280;61032;50.782;6.818;2024-03-07T03:05:22;101268.09;;;5.09;77.57
72892;BME280;61032;50.782;6.818;2024-03-07T03:06:23;101262.63;;;5.09;78.27
72892;BME280;61032;50.782;6.818;2024-03-07T03:07:23;101265.63;;;5.07;77.67
72892;BME280;61032;50.782;6.818;2024-03-07T03:08:24;101264.28;;;5.15;78.21
72892;BME280;61032;50.782;6.818;2024-03-07T03:09:24;101264.81;;;5.17;77.26
72892;BME280;61032;50.782;6.818;2024-03-07T03:10:25;101259.38;;;5.17;77.75
72892;BME280;61032;50.782;6.818;2024-03-07T03:11:26;101261.25;;;5.22;78.23
72892;BME280;61032;50.782;6.818;2024-03-07T03:12:27;101261.00;;;5.18;77.56
72892;BME280;61032;50.782;6.818;2024-03-07T03:13:27;101264.81;;;5.17;77.65
72892;BME280;61032;50.782;6.818;2024-03-07T03:14:28;101258.28;;;5.18;78.55
72892;BME280;61032;50.782;6.818;2024-03-07T03:15:28;101266.47;;;5.13;78.17
72892;BME280;61032;50.782;6.818;2024-03-07T03:16:29;101253.38;;;5.15;78.49
72892;BME280;61032;50.782;6.818;2024-03-07T03:17:29;101259.66;;;5.15;78.12
72892;BME280;61032;50.782;6.818;2024-03-07T03:18:30;101258.28;;;5.13;77.18
72892;BME280;61032;50.782;6.818;2024-03-07T03:19:31;101252.84;;;5.08;77.64
72892;BME280;61032;50.782;6.818;2024-03-07T03:20:31;101259.94;;;4.94;77.19
72892;BME280;61032;50.782;6.818;2024-03-07T03:21:35;101259.66;;;4.90;78.12
72892;BME280;61032;50.782;6.818;2024-03-07T03:22:36;101256.13;;;4.95;78.35
72892;BME280;61032;50.782;6.818;2024-03-07T03:23:37;101258.81;;;5.00;77.88
72892;BME280;61032;50.782;6.818;2024-03-07T03:24:37;101259.91;;;5.04;77.41
72892;BME280;61032;50.782;6.818;2024-03-07T03:25:41;101255.00;;;5.06;77.79
72892;BME280;61032;50.782;6.818;2024-03-07T03:26:42;101258.00;;;5.04;77.82
72892;BME280;61032;50.782;6.818;2024-03-07T03:27:42;101253.66;;;5.08;77.26
72892;BME280;61032;50.782;6.818;2024-03-07T03:28:42;101250.09;;;5.13;76.98
72892;BME280;61032;50.782;6.818;2024-03-07T03:29:43;101251.19;;;5.12;77.16
72892;BME280;61032;50.782;6.818;2024-03-07T03:30:45;101246.84;;;5.11;77.39
72892;BME280;61032;50.782;6.818;2024-03-07T03:31:45;101243.56;;;5.09;77.58
72892;BME280;61032;50.782;6.818;2024-03-07T03:32:46;101246.00;;;5.05;77.78
72892;BME280;61032;50.782;6.818;2024-03-07T03:33:47;101251.78;;;4.99;77.73
72892;BME280;61032;50.782;6.818;2024-03-07T03:34:47;101253.38;;;5.00;78.15
72892;BME280;61032;50.782;6.818;2024-03-07T03:35:48;101254.19;;;5.00;77.90
72892;BME280;61032;50.782;6.818;2024-03-07T03:36:48;101252.84;;;4.93;77.80
72892;BME280;61032;50.782;6.818;2024-03-07T03:37:49;101250.13;;;4.93;78.77
72892;BME280;61032;50.782;6.818;2024-03-07T03:38:50;101248.22;;;4.93;78.03
72892;BME280;61032;50.782;6.818;2024-03-07T03:39:50;101253.94;;;4.87;78.57
72892;BME280;61032;50.782;6.818;2024-03-07T03:40:50;101257.22;;;4.89;78.61
72892;BME280;61032;50.782;6.818;2024-03-07T03:41:51;101252.84;;;4.93;78.96
72892;BME280;61032;50.782;6.818;2024-03-07T03:42:51;101252.59;;;4.94;78.68
72892;BME280;61032;50.782;6.818;2024-03-07T03:43:52;101249.88;;;4.94;78.52
72892;BME280;61032;50.782;6.818;2024-03-07T03:44:53;101249.88;;;4.94;79.10
72892;BME280;61032;50.782;6.818;2024-03-07T03:45:53;101252.03;;;4.92;79.28
72892;BME280;61032;50.782;6.818;2024-03-07T03:46:54;101254.22;;;4.90;79.02
72892;BME280;61032;50.782;6.818;2024-03-07T03:47:54;101248.22;;;4.83;79.51
72892;BME280;61032;50.782;6.818;2024-03-07T03:48:54;101252.84;;;4.82;78.92
72892;BME280;61032;50.782;6.818;2024-03-07T03:49:55;101249.59;;;4.86;79.29
72892;BME280;61032;50.782;6.818;2024-03-07T03:50:55;101243.59;;;4.83;78.57
72892;BME280;61032;50.782;6.818;2024-03-07T03:51:56;101247.13;;;4.84;78.49
72892;BME280;61032;50.782;6.818;2024-03-07T03:52:56;101244.13;;;4.80;78.13
72892;BME280;61032;50.782;6.818;2024-03-07T03:53:57;101242.81;;;4.78;78.36
72892;BME280;61032;50.782;6.818;2024-03-07T03:55:01;101238.44;;;4.77;78.65
72892;BME280;61032;50.782;6.818;2024-03-07T03:56:02;101240.63;;;4.75;78.36
72892;BME280;61032;50.782;6.818;2024-03-07T03:57:04;101241.16;;;4.72;77.34
72892;BME280;61032;50.782;6.818;2024-03-07T03:58:05;101243.34;;;4.70;77.46
72892;BME280;61032;50.782;6.818;2024-03-07T03:59:06;101241.44;;;4.70;77.34
72892;BME280;61032;50.782;6.818;2024-03-07T04:00:07;101238.97;;;4.64;76.67
72892;BME280;61032;50.782;6.818;2024-03-07T04:01:17;101241.44;;;4.50;77.58
72892;BME280;61032;50.782;6.818;2024-03-07T04:02:18;101236.50;;;4.42;78.10
72892;BME280;61032;50.782;6.818;2024-03-07T04:03:18;101240.31;;;4.41;77.91
72892;BME280;61032;50.782;6.818;2024-03-07T04:04:19;101235.97;;;4.50;78.41
72892;BME280;61032;50.782;6.818;2024-03-07T04:05:20;101241.69;;;4.54;78.77
72892;BME280;61032;50.782;6.818;2024-03-07T04:06:21;101249.59;;;4.55;78.60
72892;BME280;61032;50.782;6.818;2024-03-07T04:07:21;101242.50;;;4.59;78.52
72892;BME280;61032;50.782;6.818;2024-03-07T04:08:22;101240.88;;;4.58;78.33
72892;BME280;61032;50.782;6.818;2024-03-07T04:09:22;101246.34;;;4.53;78.37
72892;BME280;61032;50.782;6.818;2024-03-07T04:10:23;101241.41;;;4.45;78.95
72892;BME280;61032;50.782;6.818;2024-03-07T04:11:24;101250.41;;;4.51;79.81
72892;BME280;61032;50.782;6.818;2024-03-07T04:12:24;101242.50;;;4.49;79.07
72892;BME280;61032;50.782;6.818;2024-03-07T04:13:26;101246.59;;;4.57;79.19
72892;BME280;61032;50.782;6.818;2024-03-07T04:14:28;101234.88;;;4.51;79.18
72892;BME280;61032;50.782;6.818;2024-03-07T04:15:33;101242.78;;;4.47;80.02
72892;BME280;61032;50.782;6.818;2024-03-07T04:16:33;101234.34;;;4.49;79.47
72892;BME280;61032;50.782;6.818;2024-03-07T04:17:34;101236.25;;;4.48;79.74
72892;BME280;61032;50.782;6.818;2024-03-07T04:18:35;101243.59;;;4.53;80.13
72892;BME280;61032;50.782;6.818;2024-03-07T04:19:35;101243.06;;;4.51;79.39
72892;BME280;61032;50.782;6.818;2024-03-07T04:20:36;101236.53;;;4.52;79.55
72892;BME280;61032;50.782;6.818;2024-03-07T04:21:36;101239.22;;;4.42;79.10
72892;BME280;61032;50.782;6.818;2024-03-07T04:22:37;101237.31;;;4.37;80.47
72892;BME280;61032;50.782;6.818;2024-03-07T04:23:40;101235.94;;;4.40;80.77
72892;BME280;61032;50.782;6.818;2024-03-07T04:24:41;101238.41;;;4.46;80.44
72892;BME280;61032;50.782;6.818;2024-03-07T04:25:41;101230.25;;;4.52;80.05
72892;BME280;61032;50.782;6.818;2024-03-07T04:26:42;101235.16;;;4.49;78.98
72892;BME280;61032;50.782;6.818;2024-03-07T04:27:42;101237.06;;;4.49;78.97
72892;BME280;61032;50.782;6.818;2024-03-07T04:28:42;101237.88;;;4.44;79.79
72892;BME280;61032;50.782;6.818;2024-03-07T04:29:43;101231.06;;;4.42;79.64
72892;BME280;61032;50.782;6.818;2024-03-07T04:30:43;101235.41;;;4.43;79.62
72892;BME280;61032;50.782;6.818;2024-03-07T04:31:43;101229.72;;;4.44;79.95
72892;BME280;61032;50.782;6.818;2024-03-07T04:32:44;101236.50;;;4.42;79.49
72892;BME280;61032;50.782;6.818;2024-03-07T04:33:44;101231.88;;;4.47;80.16
72892;BME280;61032;50.782;6.818;2024-03-07T04:34:46;101223.72;;;4.53;80.25
72892;BME280;61032;50.782;6.818;2024-03-07T04:35:46;101230.78;;;4.59;79.83
72892;BME280;61032;50.782;6.818;2024-03-07T04:36:47;101231.09;;;4.52;79.53
72892;BME280;61032;50.782;6.818;2024-03-07T04:37:48;101232.41;;;4.39;79.35
72892;BME280;61032;50.782;6.818;2024-03-07T04:38:48;101234.88;;;4.46;79.33
72892;BME280;61032;50.782;6.818;2024-03-07T04:39:48;101228.34;;;4.47;79.94
72892;BME280;61032;50.782;6.818;2024-03-07T04:40:49;101232.16;;;4.46;80.11
72892;BME280;61032;50.782;6.818;2024-03-07T04:41:52;101225.06;;;4.45;80.31
72892;BME280;61032;50.782;6.818;2024-03-07T04:42:53;101234.34;;;4.44;80.77
72892;BME280;61032;50.782;6.818;2024-03-07T04:43:53;101227.53;;;4.41;81.15
72892;BME280;61032;50.782;6.818;2024-03-07T04:44:54;101230.25;;;4.46;80.78
72892;BME280;61032;50.782;6.818;2024-03-07T04:45:55;101229.44;;;4.51;80.17
72892;BME280;61032;50.782;6.818;2024-03-07T04:46:56;101221.81;;;4.53;79.21
72892;BME280;61032;50.782;6.818;2024-03-07T04:47:57;101228.09;;;4.54;79.47
72892;BME280;61032;50.782;6.818;2024-03-07T04:48:57;101227.00;;;4.49;78.29
72892;BME280;61032;50.782;6.818;2024-03-07T04:49:58;101222.34;;;4.45;77.75
72892;BME280;61032;50.782;6.818;2024-03-07T04:50:58;101225.91;;;4.45;78.60
72892;BME280;61032;50.782;6.818;2024-03-07T04:52:00;101225.06;;;4.45;78.28
72892;BME280;61032;50.782;6.818;2024-03-07T04:53:01;101221.53;;;4.44;77.52
72892;BME280;61032;50.782;6.818;2024-03-07T04:54:02;101228.88;;;4.44;77.68
72892;BME280;61032;50.782;6.818;2024-03-07T04:55:03;101229.44;;;4.41;77.54
72892;BME280;61032;50.782;6.818;2024-03-07T04:56:04;101223.97;;;4.41;77.04
72892;BME280;61032;50.782;6.818;2024-03-07T04:57:04;101231.03;;;4.37;77.24
72892;BME280;61032;50.782;6.818;2024-03-07T04:58:05;101224.81;;;4.41;77.37
72892;BME280;61032;50.782;6.818;2024-03-07T04:59:06;101221.00;;;4.42;77.53
72892;BME280;61032;50.782;6.818;2024-03-07T05:00:13;101220.44;;;4.45;77.45
72892;BME280;61032;50.782;6.818;2024-03-07T05:01:14;101221.81;;;4.43;76.56
72892;BME280;61032;50.782;6.818;2024-03-07T05:02:15;101225.34;;;4.38;76.88
72892;BME280;61032;50.782;6.818;2024-03-07T05:03:15;101222.34;;;4.40;76.81
72892;BME280;61032;50.782;6.818;2024-03-07T05:04:16;101230.25;;;4.36;77.43
72892;BME280;61032;50.782;6.818;2024-03-07T05:05:17;101223.97;;;4.41;77.61
72892;BME280;61032;50.782;6.818;2024-03-07T05:06:25;101227.53;;;4.52;77.20
72892;BME280;61032;50.782;6.818;2024-03-07T05:07:26;101223.19;;;4.51;77.91
72892;BME280;61032;50.782;6.818;2024-03-07T05:08:26;101231.88;;;4.47;77.93
72892;BME280;61032;50.782;6.818;2024-03-07T05:09:27;101229.44;;;4.51;78.15
72892;BME280;61032;50.782;6.818;2024-03-07T05:10:28;101230.81;;;4.48;77.78
72892;BME280;61032;50.782;6.818;2024-03-07T05:11:30;101226.47;;;4.53;77.84
72892;BME280;61032;50.782;6.818;2024-03-07T05:12:31;101231.63;;;4.49;78.01
72892;BME280;61032;50.782;6.818;2024-03-07T05:13:31;101230.53;;;4.45;78.98
72892;BME280;61032;50.782;6.818;2024-03-07T05:14:32;101232.16;;;4.41;78.85
72892;BME280;61032;50.782;6.818;2024-03-07T05:15:32;101235.41;;;4.38;79.61
72892;BME280;61032;50.782;6.818;2024-03-07T05:16:32;101231.06;;;4.42;79.26
72892;BME280;61032;50.782;6.818;2024-03-07T05:17:33;101230.25;;;4.41;79.63
72892;BME280;61032;50.782;6.818;2024-03-07T05:18:35;101230.78;;;4.38;78.66
72892;BME280;61032;50.782;6.818;2024-03-07T05:19:35;101231.88;;;4.32;79.16
72892;BME280;61032;50.782;6.818;2024-03-07T05:20:36;101231.06;;;4.32;79.08
72892;BME280;61032;50.782;6.818;2024-03-07T05:21:36;101230.25;;;4.31;79.46
72892;BME280;61032;50.782;6.818;2024-03-07T05:22:43;101222.38;;;4.35;79.08